Monetta, South Carolina
Current Conditions -  °F | °C
As of 5:55 PM on Friday 31 Oct 2014 (Local Time) from KAIK Reporting Station
Overcast Overcast  
Wind Chill: 64°   Ceiling: 8500
Heat Index: 64°   Visibility: 10mi
Dew Point: 48°   Wind: 0mph
Humidity: 56%   Direction: NA
Pressure: 29.82"   Gusts: NA
Location:  33.85°N, 81.61°W
Report Text: KAIK 312155Z AUTO 00000KT 10SM SCT070 BKN085 OVC110 18/09 A2982 RMK AO2 PNO
Loading
Personal Weather Stations






























Interactive Weather Map
Tropical Storm Tracking
New forecast layout! Learn more

10-Day Weather Forecast

Advertisements
Track Severe Weather on mobile